Strona główna
METAR-TAF:

METAR-TAF

Lotnisko :

Le Touquet, Francja

Szerokość geograficzna: 50-30-53N, Długość geograficzna: 001-37-39E, wysokość: 6 m

Aktualna obserwacja pogody

Raport powstał 40 minut temu, godzina 16:30 UTC
Wiatr 10 kt od północ, zmienny między północno-północny zachód i północno-północny wschód
Temperatura 8°C
Wilgotność 81%
Ciśnienie 1014 hPa
Widzialność 10 km lub więcej
Rozproszone chmury na wysokości 2300 ft
Rozproszone chmury na wysokości 3000 ft
Przerywane chmury na wysokości 4100 ft

METAR: LFAT 181630Z AUTO 35010KT 330V030 9999 SCT023 SCT030 BKN041 08/05 Q1014 NOSIG

czas: 18:10 (17:10 UTC)

Prognoza

Raport powstał 3 godziny i 10 minut temu, godzina 14:00 UTC
Prognoza ważna od 18 godzina 15 UTC do 18 godzina 24 UTC
Wiatr 15 kt od północ
Widzialność 10 km lub więcej
Przerywane chmury na wysokości 2000 ft

TAF: LFAT 181400Z 1815/1824 35015KT 9999 BKN020

Obserwacja i prognoza pogody dla ponad 4000 lotnisk (raport METAR i TAF).

Dostępne stacje oznaczono żółtymi i czerwonymi punktami na mapie.

Najedź kursorem aby zobaczyć nazwę stacji.

Kliknij aby zobaczyć obserwacje i prognozy pogody.

Aby zmienić mapę: kliknij na zielony przycisk z czarnym krzyżykiem, aby powiększyć; na zielony przycisk z myślnikiem, aby pomniejszyć; na zielone strzałki, aby przejść do map sąsiednich.


METAR-TAF: